sensor_id;sensor_type;location;lat;lon;timestamp;temperature;humidity
10312;DHT22;5201;48.776;9.128;2023-04-19T00:01:26;11.30;99.90
10312;DHT22;5201;48.776;9.128;2023-04-19T00:03:53;11.30;99.90
10312;DHT22;5201;48.776;9.128;2023-04-19T00:06:19;11.20;99.90
10312;DHT22;5201;48.776;9.128;2023-04-19T00:08:45;11.70;99.90
10312;DHT22;5201;48.776;9.128;2023-04-19T00:11:11;11.20;99.90
10312;DHT22;5201;48.776;9.128;2023-04-19T00:13:36;11.30;99.90
10312;DHT22;5201;48.776;9.128;2023-04-19T00:16:02;11.70;99.90
10312;DHT22;5201;48.776;9.128;2023-04-19T00:18:27;11.30;99.90
10312;DHT22;5201;48.776;9.128;2023-04-19T00:20:53;11.10;99.90
10312;DHT22;5201;48.776;9.128;2023-04-19T00:23:18;11.00;99.90
10312;DHT22;5201;48.776;9.128;2023-04-19T00:25:45;11.00;99.90
10312;DHT22;5201;48.776;9.128;2023-04-19T00:28:10;11.00;99.90
10312;DHT22;5201;48.776;9.128;2023-04-19T00:30:36;11.10;99.90
10312;DHT22;5201;48.776;9.128;2023-04-19T00:33:02;11.00;99.90
10312;DHT22;5201;48.776;9.128;2023-04-19T00:35:27;10.90;99.90
10312;DHT22;5201;48.776;9.128;2023-04-19T00:37:53;10.90;99.90
10312;DHT22;5201;48.776;9.128;2023-04-19T00:40:19;10.90;99.90
10312;DHT22;5201;48.776;9.128;2023-04-19T00:42:44;11.00;99.90
10312;DHT22;5201;48.776;9.128;2023-04-19T00:45:10;11.00;99.90
10312;DHT22;5201;48.776;9.128;2023-04-19T00:47:36;10.90;99.90
10312;DHT22;5201;48.776;9.128;2023-04-19T00:50:03;11.00;99.90
10312;DHT22;5201;48.776;9.128;2023-04-19T00:52:28;10.90;99.90
10312;DHT22;5201;48.776;9.128;2023-04-19T00:54:54;10.90;99.90
10312;DHT22;5201;48.776;9.128;2023-04-19T00:57:21;11.00;99.90
10312;DHT22;5201;48.776;9.128;2023-04-19T00:59:47;10.90;99.90
10312;DHT22;5201;48.776;9.128;2023-04-19T01:02:13;10.90;99.90
10312;DHT22;5201;48.776;9.128;2023-04-19T01:04:38;10.90;99.90
10312;DHT22;5201;48.776;9.128;2023-04-19T01:07:04;10.80;99.90
10312;DHT22;5201;48.776;9.128;2023-04-19T01:09:31;10.90;99.90
10312;DHT22;5201;48.776;9.128;2023-04-19T01:11:56;11.00;99.90
10312;DHT22;5201;48.776;9.128;2023-04-19T01:14:23;10.70;99.90
10312;DHT22;5201;48.776;9.128;2023-04-19T01:16:50;10.70;99.90
10312;DHT22;5201;48.776;9.128;2023-04-19T01:19:17;10.60;99.90
10312;DHT22;5201;48.776;9.128;2023-04-19T01:21:43;10.60;99.90
10312;DHT22;5201;48.776;9.128;2023-04-19T01:24:08;10.60;99.90
10312;DHT22;5201;48.776;9.128;2023-04-19T01:26:34;10.70;99.90
10312;DHT22;5201;48.776;9.128;2023-04-19T01:28:59;10.60;99.90
10312;DHT22;5201;48.776;9.128;2023-04-19T01:31:25;10.50;99.90
10312;DHT22;5201;48.776;9.128;2023-04-19T01:33:51;10.60;99.90
10312;DHT22;5201;48.776;9.128;2023-04-19T01:36:16;10.60;99.90
10312;DHT22;5201;48.776;9.128;2023-04-19T01:38:42;10.60;99.90
10312;DHT22;5201;48.776;9.128;2023-04-19T01:41:08;10.90;99.90
10312;DHT22;5201;48.776;9.128;2023-04-19T01:43:33;10.70;99.90
10312;DHT22;5201;48.776;9.128;2023-04-19T01:45:59;10.60;99.90
10312;DHT22;5201;48.776;9.128;2023-04-19T01:48:24;10.50;99.90
10312;DHT22;5201;48.776;9.128;2023-04-19T01:50:51;10.30;99.90
10312;DHT22;5201;48.776;9.128;2023-04-19T01:53:16;10.40;99.90
10312;DHT22;5201;48.776;9.128;2023-04-19T01:55:42;10.30;99.90
10312;DHT22;5201;48.776;9.128;2023-04-19T01:58:07;10.30;99.90
10312;DHT22;5201;48.776;9.128;2023-04-19T02:00:34;10.30;99.90
10312;DHT22;5201;48.776;9.128;2023-04-19T02:02:59;10.40;99.90
10312;DHT22;5201;48.776;9.128;2023-04-19T02:05:25;10.40;99.90
10312;DHT22;5201;48.776;9.128;2023-04-19T02:07:50;10.40;99.90
10312;DHT22;5201;48.776;9.128;2023-04-19T02:10:16;11.00;99.90
10312;DHT22;5201;48.776;9.128;2023-04-19T02:12:41;10.30;99.90
10312;DHT22;5201;48.776;9.128;2023-04-19T02:15:07;10.40;99.90
10312;DHT22;5201;48.776;9.128;2023-04-19T02:17:33;10.30;99.90
10312;DHT22;5201;48.776;9.128;2023-04-19T02:19:58;10.30;99.90
10312;DHT22;5201;48.776;9.128;2023-04-19T02:22:24;10.30;99.90
10312;DHT22;5201;48.776;9.128;2023-04-19T02:24:50;10.30;99.90
10312;DHT22;5201;48.776;9.128;2023-04-19T02:27:16;10.40;99.90
10312;DHT22;5201;48.776;9.128;2023-04-19T02:29:41;10.40;99.90
10312;DHT22;5201;48.776;9.128;2023-04-19T02:32:07;10.30;99.90
10312;DHT22;5201;48.776;9.128;2023-04-19T02:34:33;10.40;99.90
10312;DHT22;5201;48.776;9.128;2023-04-19T02:36:59;10.40;99.90
10312;DHT22;5201;48.776;9.128;2023-04-19T02:39:25;10.40;99.90
10312;DHT22;5201;48.776;9.128;2023-04-19T02:41:51;10.30;99.90
10312;DHT22;5201;48.776;9.128;2023-04-19T02:44:16;10.20;99.90
10312;DHT22;5201;48.776;9.128;2023-04-19T02:46:48;10.30;99.90
10312;DHT22;5201;48.776;9.128;2023-04-19T02:49:14;10.30;99.90
10312;DHT22;5201;48.776;9.128;2023-04-19T02:51:40;10.30;99.90
10312;DHT22;5201;48.776;9.128;2023-04-19T02:54:06;10.30;99.90
10312;DHT22;5201;48.776;9.128;2023-04-19T02:56:31;10.40;99.90
10312;DHT22;5201;48.776;9.128;2023-04-19T02:59:00;10.30;99.90
10312;DHT22;5201;48.776;9.128;2023-04-19T03:01:25;10.40;99.90
10312;DHT22;5201;48.776;9.128;2023-04-19T03:03:51;10.30;99.90
10312;DHT22;5201;48.776;9.128;2023-04-19T03:06:17;10.30;99.90
10312;DHT22;5201;48.776;9.128;2023-04-19T03:08:42;10.40;99.90
10312;DHT22;5201;48.776;9.128;2023-04-19T03:11:10;10.40;99.90
10312;DHT22;5201;48.776;9.128;2023-04-19T03:13:35;10.30;99.90
10312;DHT22;5201;48.776;9.128;2023-04-19T03:16:01;10.40;99.90
10312;DHT22;5201;48.776;9.128;2023-04-19T03:18:26;10.30;99.90
10312;DHT22;5201;48.776;9.128;2023-04-19T03:20:52;10.30;99.90
10312;DHT22;5201;48.776;9.128;2023-04-19T03:23:18;10.20;99.90
10312;DHT22;5201;48.776;9.128;2023-04-19T03:25:43;10.10;99.90
10312;DHT22;5201;48.776;9.128;2023-04-19T03:28:09;10.10;99.90
10312;DHT22;5201;48.776;9.128;2023-04-19T03:30:34;10.20;99.90
10312;DHT22;5201;48.776;9.128;2023-04-19T03:33:00;10.10;99.90
10312;DHT22;5201;48.776;9.128;2023-04-19T03:35:25;10.10;99.90
10312;DHT22;5201;48.776;9.128;2023-04-19T03:37:53;10.00;99.90
10312;DHT22;5201;48.776;9.128;2023-04-19T03:40:19;10.00;99.90
10312;DHT22;5201;48.776;9.128;2023-04-19T03:42:45;10.10;99.90
10312;DHT22;5201;48.776;9.128;2023-04-19T03:45:10;10.20;99.90
10312;DHT22;5201;48.776;9.128;2023-04-19T03:47:36;10.20;99.90
10312;DHT22;5201;48.776;9.128;2023-04-19T03:50:01;10.30;99.90
10312;DHT22;5201;48.776;9.128;2023-04-19T03:52:27;10.20;99.90
10312;DHT22;5201;48.776;9.128;2023-04-19T03:54:53;10.10;99.90
10312;DHT22;5201;48.776;9.128;2023-04-19T03:57:18;10.40;99.90
10312;DHT22;5201;48.776;9.128;2023-04-19T03:59:44;10.00;99.90
10312;DHT22;5201;48.776;9.128;2023-04-19T04:02:09;10.10;99.90
10312;DHT22;5201;48.776;9.128;2023-04-19T04:04:35;10.10;99.90
10312;DHT22;5201;48.776;9.128;2023-04-19T04:07:01;10.00;99.90
10312;DHT22;5201;48.776;9.128;2023-04-19T04:09:26;10.00;99.90
10312;DHT22;5201;48.776;9.128;2023-04-19T04:11:52;10.10;99.90
10312;DHT22;5201;48.776;9.128;2023-04-19T04:14:17;10.00;99.90
10312;DHT22;5201;48.776;9.128;2023-04-19T04:16:43;9.90;99.90
10312;DHT22;5201;48.776;9.128;2023-04-19T04:19:08;9.90;99.90
10312;DHT22;5201;48.776;9.128;2023-04-19T04:21:34;9.80;99.90
10312;DHT22;5201;48.776;9.128;2023-04-19T04:24:00;9.80;99.90
10312;DHT22;5201;48.776;9.128;2023-04-19T04:26:26;9.70;99.90
10312;DHT22;5201;48.776;9.128;2023-04-19T04:28:55;9.70;99.90
10312;DHT22;5201;48.776;9.128;2023-04-19T04:31:21;9.70;99.90
10312;DHT22;5201;48.776;9.128;2023-04-19T04:33:47;9.70;99.90
10312;DHT22;5201;48.776;9.128;2023-04-19T04:36:12;9.80;99.90
10312;DHT22;5201;48.776;9.128;2023-04-19T04:38:38;9.80;99.90
10312;DHT22;5201;48.776;9.128;2023-04-19T04:41:04;9.80;99.90
10312;DHT22;5201;48.776;9.128;2023-04-19T04:43:31;9.90;99.90
10312;DHT22;5201;48.776;9.128;2023-04-19T04:45:57;9.90;99.90
10312;DHT22;5201;48.776;9.128;2023-04-19T04:48:23;10.00;99.90
10312;DHT22;5201;48.776;9.128;2023-04-19T04:50:49;10.10;99.90
10312;DHT22;5201;48.776;9.128;2023-04-19T04:53:15;10.10;99.90
10312;DHT22;5201;48.776;9.128;2023-04-19T04:55:40;10.00;99.90
10312;DHT22;5201;48.776;9.128;2023-04-19T04:58:06;10.00;99.90
10312;DHT22;5201;48.776;9.128;2023-04-19T05:00:32;9.90;99.90
10312;DHT22;5201;48.776;9.128;2023-04-19T05:02:58;12.10;99.90
10312;DHT22;5201;48.776;9.128;2023-04-19T05:05:24;9.90;99.90
10312;DHT22;5201;48.776;9.128;2023-04-19T05:07:50;9.80;99.90
10312;DHT22;5201;48.776;9.128;2023-04-19T05:10:16;9.70;99.90
10312;DHT22;5201;48.776;9.128;2023-04-19T05:12:41;9.80;99.90
10312;DHT22;5201;48.776;9.128;2023-04-19T05:15:07;9.80;99.90
10312;DHT22;5201;48.776;9.128;2023-04-19T05:17:33;9.80;99.90
10312;DHT22;5201;48.776;9.128;2023-04-19T05:19:59;9.80;99.90
10312;DHT22;5201;48.776;9.128;2023-04-19T05:22:24;9.70;99.90
10312;DHT22;5201;48.776;9.128;2023-04-19T05:24:50;9.60;99.90
10312;DHT22;5201;48.776;9.128;2023-04-19T05:27:16;10.00;99.90
10312;DHT22;5201;48.776;9.128;2023-04-19T05:29:42;9.50;99.90
10312;DHT22;5201;48.776;9.128;2023-04-19T05:32:07;9.60;99.90
10312;DHT22;5201;48.776;9.128;2023-04-19T05:34:34;9.70;99.90
10312;DHT22;5201;48.776;9.128;2023-04-19T05:37:01;9.60;99.90
10312;DHT22;5201;48.776;9.128;2023-04-19T05:39:27;9.40;99.90
10312;DHT22;5201;48.776;9.128;2023-04-19T05:41:53;9.60;99.90
10312;DHT22;5201;48.776;9.128;2023-04-19T05:44:18;9.30;99.90
10312;DHT22;5201;48.776;9.128;2023-04-19T05:46:44;9.20;99.90
10312;DHT22;5201;48.776;9.128;2023-04-19T05:49:09;9.30;99.90
10312;DHT22;5201;48.776;9.128;2023-04-19T05:51:35;9.40;99.90
10312;DHT22;5201;48.776;9.128;2023-04-19T05:54:01;9.50;99.90
10312;DHT22;5201;48.776;9.128;2023-04-19T05:56:26;9.40;99.90
10312;DHT22;5201;48.776;9.128;2023-04-19T05:58:52;9.40;99.90
10312;DHT22;5201;48.776;9.128;2023-04-19T06:01:20;9.50;99.90
10312;DHT22;5201;48.776;9.128;2023-04-19T06:03:45;10.40;99.90
10312;DHT22;5201;48.776;9.128;2023-04-19T06:06:11;9.60;99.90
10312;DHT22;5201;48.776;9.128;2023-04-19T06:08:36;9.60;99.90
10312;DHT22;5201;48.776;9.128;2023-04-19T06:11:02;9.60;99.90
10312;DHT22;5201;48.776;9.128;2023-04-19T06:13:27;9.70;99.90
10312;DHT22;5201;48.776;9.128;2023-04-19T06:15:53;9.70;99.90
10312;DHT22;5201;48.776;9.128;2023-04-19T06:18:19;9.70;99.90
10312;DHT22;5201;48.776;9.128;2023-04-19T06:20:44;9.70;99.90
10312;DHT22;5201;48.776;9.128;2023-04-19T06:23:10;9.60;99.90
10312;DHT22;5201;48.776;9.128;2023-04-19T06:25:37;9.70;99.90
10312;DHT22;5201;48.776;9.128;2023-04-19T06:28:03;9.80;99.90
10312;DHT22;5201;48.776;9.128;2023-04-19T06:30:28;9.80;99.90
10312;DHT22;5201;48.776;9.128;2023-04-19T06:32:54;9.90;99.90
10312;DHT22;5201;48.776;9.128;2023-04-19T06:35:20;10.00;99.90
10312;DHT22;5201;48.776;9.128;2023-04-19T06:37:45;10.00;99.90
10312;DHT22;5201;48.776;9.128;2023-04-19T06:40:11;10.20;99.90
10312;DHT22;5201;48.776;9.128;2023-04-19T06:42:37;10.10;99.90
10312;DHT22;5201;48.776;9.128;2023-04-19T06:45:03;10.10;99.90
10312;DHT22;5201;48.776;9.128;2023-04-19T06:47:29;10.20;99.90
10312;DHT22;5201;48.776;9.128;2023-04-19T06:49:56;10.30;99.90
10312;DHT22;5201;48.776;9.128;2023-04-19T06:52:22;10.40;99.90
10312;DHT22;5201;48.776;9.128;2023-04-19T06:54:48;10.50;99.90
10312;DHT22;5201;48.776;9.128;2023-04-19T06:57:14;10.50;99.90
10312;DHT22;5201;48.776;9.128;2023-04-19T06:59:39;10.50;99.90
10312;DHT22;5201;48.776;9.128;2023-04-19T07:02:05;10.60;99.90
10312;DHT22;5201;48.776;9.128;2023-04-19T07:04:31;10.60;99.90
10312;DHT22;5201;48.776;9.128;2023-04-19T07:06:56;10.70;99.90
10312;DHT22;5201;48.776;9.128;2023-04-19T07:09:22;10.80;99.90
10312;DHT22;5201;48.776;9.128;2023-04-19T07:11:48;11.00;99.90
10312;DHT22;5201;48.776;9.128;2023-04-19T07:14:15;11.10;99.90
10312;DHT22;5201;48.776;9.128;2023-04-19T07:16:43;11.80;99.90
10312;DHT22;5201;48.776;9.128;2023-04-19T07:19:09;11.00;99.90
10312;DHT22;5201;48.776;9.128;2023-04-19T07:21:35;11.20;99.90
10312;DHT22;5201;48.776;9.128;2023-04-19T07:24:03;11.30;99.90
10312;DHT22;5201;48.776;9.128;2023-04-19T07:26:28;11.20;99.90
10312;DHT22;5201;48.776;9.128;2023-04-19T07:28:54;11.20;99.90
10312;DHT22;5201;48.776;9.128;2023-04-19T07:31:20;13.50;99.90
10312;DHT22;5201;48.776;9.128;2023-04-19T07:33:46;11.60;99.90
10312;DHT22;5201;48.776;9.128;2023-04-19T07:36:11;11.50;99.90
10312;DHT22;5201;48.776;9.128;2023-04-19T07:38:37;11.60;99.90
10312;DHT22;5201;48.776;9.128;2023-04-19T07:41:03;11.70;99.90
10312;DHT22;5201;48.776;9.128;2023-04-19T07:43:29;11.80;99.90
10312;DHT22;5201;48.776;9.128;2023-04-19T07:45:55;11.90;99.90
10312;DHT22;5201;48.776;9.128;2023-04-19T07:48:21;12.10;99.90
10312;DHT22;5201;48.776;9.128;2023-04-19T07:50:47;12.10;99.90
10312;DHT22;5201;48.776;9.128;2023-04-19T07:53:12;12.10;99.90
10312;DHT22;5201;48.776;9.128;2023-04-19T07:55:38;12.20;99.90
10312;DHT22;5201;48.776;9.128;2023-04-19T07:58:03;12.60;99.90
10312;DHT22;5201;48.776;9.128;2023-04-19T08:00:30;13.00;99.90
10312;DHT22;5201;48.776;9.128;2023-04-19T08:02:56;13.30;99.90
10312;DHT22;5201;48.776;9.128;2023-04-19T08:05:22;13.70;99.90
10312;DHT22;5201;48.776;9.128;2023-04-19T08:07:47;14.50;99.90
10312;DHT22;5201;48.776;9.128;2023-04-19T08:10:13;15.50;99.90
10312;DHT22;5201;48.776;9.128;2023-04-19T08:12:39;16.00;99.90
10312;DHT22;5201;48.776;9.128;2023-04-19T08:15:06;15.70;99.90
10312;DHT22;5201;48.776;9.128;2023-04-19T08:17:33;15.60;99.90
10312;DHT22;5201;48.776;9.128;2023-04-19T08:19:58;15.40;99.90
10312;DHT22;5201;48.776;9.128;2023-04-19T08:22:24;15.10;99.90
10312;DHT22;5201;48.776;9.128;2023-04-19T08:24:50;14.70;99.90
10312;DHT22;5201;48.776;9.128;2023-04-19T08:27:16;14.20;99.90
10312;DHT22;5201;48.776;9.128;2023-04-19T08:29:42;14.20;99.90
10312;DHT22;5201;48.776;9.128;2023-04-19T08:32:08;13.70;99.90
10312;DHT22;5201;48.776;9.128;2023-04-19T08:34:34;13.20;99.90
10312;DHT22;5201;48.776;9.128;2023-04-19T08:37:04;13.20;99.90
10312;DHT22;5201;48.776;9.128;2023-04-19T08:39:33;12.90;99.90
10312;DHT22;5201;48.776;9.128;2023-04-19T08:42:07;12.80;99.90
10312;DHT22;5201;48.776;9.128;2023-04-19T08:44:34;12.60;99.90
10312;DHT22;5201;48.776;9.128;2023-04-19T08:47:00;12.60;99.90
10312;DHT22;5201;48.776;9.128;2023-04-19T08:49:30;12.40;99.90
10312;DHT22;5201;48.776;9.128;2023-04-19T08:51:59;12.60;99.90
10312;DHT22;5201;48.776;9.128;2023-04-19T08:54:28;12.50;99.90
10312;DHT22;5201;48.776;9.128;2023-04-19T08:56:54;12.60;99.90
10312;DHT22;5201;48.776;9.128;2023-04-19T08:59:21;13.90;99.90
10312;DHT22;5201;48.776;9.128;2023-04-19T09:01:46;14.10;99.90
10312;DHT22;5201;48.776;9.128;2023-04-19T09:04:12;12.60;99.90
10312;DHT22;5201;48.776;9.128;2023-04-19T09:06:38;12.50;99.90
10312;DHT22;5201;48.776;9.128;2023-04-19T09:11:40;12.60;99.90
10312;DHT22;5201;48.776;9.128;2023-04-19T09:14:14;12.70;99.90
10312;DHT22;5201;48.776;9.128;2023-04-19T09:16:40;12.70;99.90
10312;DHT22;5201;48.776;9.128;2023-04-19T09:19:06;12.40;99.90
10312;DHT22;5201;48.776;9.128;2023-04-19T09:21:34;12.40;99.90
10312;DHT22;5201;48.776;9.128;2023-04-19T09:24:01;13.90;99.90
10312;DHT22;5201;48.776;9.128;2023-04-19T09:26:27;13.00;99.90
10312;DHT22;5201;48.776;9.128;2023-04-19T09:31:22;13.60;99.90
10312;DHT22;5201;48.776;9.128;2023-04-19T09:33:49;13.30;99.90
10312;DHT22;5201;48.776;9.128;2023-04-19T09:36:32;13.30;99.90
10312;DHT22;5201;48.776;9.128;2023-04-19T09:38:58;13.30;99.90
10312;DHT22;5201;48.776;9.128;2023-04-19T09:41:25;13.40;99.90
10312;DHT22;5201;48.776;9.128;2023-04-19T09:43:51;13.50;99.90
10312;DHT22;5201;48.776;9.128;2023-04-19T09:46:36;13.50;99.90
10312;DHT22;5201;48.776;9.128;2023-04-19T09:51:50;13.60;99.90
10312;DHT22;5201;48.776;9.128;2023-04-19T09:54:18;13.60;99.90
10312;DHT22;5201;48.776;9.128;2023-04-19T09:56:45;13.30;99.90
10312;DHT22;5201;48.776;9.128;2023-04-19T09:59:11;13.40;99.90
10312;DHT22;5201;48.776;9.128;2023-04-19T10:01:42;14.40;99.90
10312;DHT22;5201;48.776;9.128;2023-04-19T10:04:15;13.60;99.90
10312;DHT22;5201;48.776;9.128;2023-04-19T10:06:50;13.30;99.90
10312;DHT22;5201;48.776;9.128;2023-04-19T10:09:17;13.00;99.90
10312;DHT22;5201;48.776;9.128;2023-04-19T10:11:48;13.10;99.90
10312;DHT22;5201;48.776;9.128;2023-04-19T10:14:16;13.20;99.90
10312;DHT22;5201;48.776;9.128;2023-04-19T10:16:44;13.70;99.90
10312;DHT22;5201;48.776;9.128;2023-04-19T10:19:11;13.80;99.90
10312;DHT22;5201;48.776;9.128;2023-04-19T10:21:40;13.40;99.90
10312;DHT22;5201;48.776;9.128;2023-04-19T10:24:07;14.00;99.90
10312;DHT22;5201;48.776;9.128;2023-04-19T10:29:56;13.90;99.90
10312;DHT22;5201;48.776;9.128;2023-04-19T10:32:29;13.70;99.90
10312;DHT22;5201;48.776;9.128;2023-04-19T10:35:01;13.70;99.90
10312;DHT22;5201;48.776;9.128;2023-04-19T10:37:30;13.20;99.90
10312;DHT22;5201;48.776;9.128;2023-04-19T10:39:56;13.20;99.90
10312;DHT22;5201;48.776;9.128;2023-04-19T10:42:22;13.20;99.90
10312;DHT22;5201;48.776;9.128;2023-04-19T10:47:51;13.10;99.90
10312;DHT22;5201;48.776;9.128;2023-04-19T10:50:17;13.20;99.90
10312;DHT22;5201;48.776;9.128;2023-04-19T10:52:43;12.90;99.90
10312;DHT22;5201;48.776;9.128;2023-04-19T10:55:09;13.00;99.90
10312;DHT22;5201;48.776;9.128;2023-04-19T10:58:02;13.00;99.90
10312;DHT22;5201;48.776;9.128;2023-04-19T11:00:28;13.10;99.90
10312;DHT22;5201;48.776;9.128;2023-04-19T11:03:00;13.00;99.90
10312;DHT22;5201;48.776;9.128;2023-04-19T11:06:15;13.00;99.90
10312;DHT22;5201;48.776;9.128;2023-04-19T11:08:43;13.20;99.90
10312;DHT22;5201;48.776;9.128;2023-04-19T11:11:09;13.00;99.90
10312;DHT22;5201;48.776;9.128;2023-04-19T11:13:36;13.10;99.90
10312;DHT22;5201;48.776;9.128;2023-04-19T11:16:07;13.20;99.90
10312;DHT22;5201;48.776;9.128;2023-04-19T11:18:33;13.20;99.90
10312;DHT22;5201;48.776;9.128;2023-04-19T11:20:58;13.00;99.90
10312;DHT22;5201;48.776;9.128;2023-04-19T11:23:25;13.00;99.90
10312;DHT22;5201;48.776;9.128;2023-04-19T11:25:51;12.90;99.90
10312;DHT22;5201;48.776;9.128;2023-04-19T11:28:17;13.10;99.90
10312;DHT22;5201;48.776;9.128;2023-04-19T11:30:43;12.80;99.90
10312;DHT22;5201;48.776;9.128;2023-04-19T11:33:11;12.70;99.90
10312;DHT22;5201;48.776;9.128;2023-04-19T11:35:37;12.50;99.90
10312;DHT22;5201;48.776;9.128;2023-04-19T11:38:03;12.40;99.90
10312;DHT22;5201;48.776;9.128;2023-04-19T11:40:32;12.30;99.90
10312;DHT22;5201;48.776;9.128;2023-04-19T11:43:02;12.20;99.90
10312;DHT22;5201;48.776;9.128;2023-04-19T11:45:29;12.10;99.90
10312;DHT22;5201;48.776;9.128;2023-04-19T11:47:55;12.00;99.90
10312;DHT22;5201;48.776;9.128;2023-04-19T11:52:57;11.80;99.90
10312;DHT22;5201;48.776;9.128;2023-04-19T11:55:23;11.70;99.90
10312;DHT22;5201;48.776;9.128;2023-04-19T11:57:48;11.60;99.90
10312;DHT22;5201;48.776;9.128;2023-04-19T12:00:14;12.00;99.90
10312;DHT22;5201;48.776;9.128;2023-04-19T12:02:42;11.50;99.90
10312;DHT22;5201;48.776;9.128;2023-04-19T12:05:10;11.40;99.90
10312;DHT22;5201;48.776;9.128;2023-04-19T12:07:35;11.30;99.90
10312;DHT22;5201;48.776;9.128;2023-04-19T12:10:09;11.20;99.90
10312;DHT22;5201;48.776;9.128;2023-04-19T12:12:35;11.30;99.90
10312;DHT22;5201;48.776;9.128;2023-04-19T12:15:01;11.20;99.90
10312;DHT22;5201;48.776;9.128;2023-04-19T12:17:26;11.30;99.90
10312;DHT22;5201;48.776;9.128;2023-04-19T12:19:52;11.20;99.90
10312;DHT22;5201;48.776;9.128;2023-04-19T12:22:18;11.20;99.90
10312;DHT22;5201;48.776;9.128;2023-04-19T12:24:45;11.20;99.90
10312;DHT22;5201;48.776;9.128;2023-04-19T12:27:11;11.20;99.90
10312;DHT22;5201;48.776;9.128;2023-04-19T12:29:37;11.20;99.90
10312;DHT22;5201;48.776;9.128;2023-04-19T12:32:03;11.20;99.90
10312;DHT22;5201;48.776;9.128;2023-04-19T12:34:29;11.20;99.90
10312;DHT22;5201;48.776;9.128;2023-04-19T12:36:55;11.30;99.90
10312;DHT22;5201;48.776;9.128;2023-04-19T12:39:21;11.30;99.90
10312;DHT22;5201;48.776;9.128;2023-04-19T12:41:47;11.20;99.90
10312;DHT22;5201;48.776;9.128;2023-04-19T12:44:13;11.10;99.90
10312;DHT22;5201;48.776;9.128;2023-04-19T12:46:39;10.80;99.90
10312;DHT22;5201;48.776;9.128;2023-04-19T12:49:05;10.80;99.90
10312;DHT22;5201;48.776;9.128;2023-04-19T12:51:31;10.90;99.90
10312;DHT22;5201;48.776;9.128;2023-04-19T12:53:57;10.90;99.90
10312;DHT22;5201;48.776;9.128;2023-04-19T12:56:22;10.80;99.90
10312;DHT22;5201;48.776;9.128;2023-04-19T12:58:48;10.70;99.90
10312;DHT22;5201;48.776;9.128;2023-04-19T13:01:13;10.70;99.90
10312;DHT22;5201;48.776;9.128;2023-04-19T13:03:39;10.70;99.90
10312;DHT22;5201;48.776;9.128;2023-04-19T13:06:05;11.00;99.90
10312;DHT22;5201;48.776;9.128;2023-04-19T13:08:31;10.80;99.90
10312;DHT22;5201;48.776;9.128;2023-04-19T13:10:57;10.80;99.90
10312;DHT22;5201;48.776;9.128;2023-04-19T13:13:27;10.60;99.90
10312;DHT22;5201;48.776;9.128;2023-04-19T13:15:53;10.60;99.90
10312;DHT22;5201;48.776;9.128;2023-04-19T13:18:19;10.70;99.90
10312;DHT22;5201;48.776;9.128;2023-04-19T13:20:47;10.70;99.90
10312;DHT22;5201;48.776;9.128;2023-04-19T13:23:14;10.60;99.90
10312;DHT22;5201;48.776;9.128;2023-04-19T13:25:39;10.50;99.90
10312;DHT22;5201;48.776;9.128;2023-04-19T13:28:05;11.00;99.90
10312;DHT22;5201;48.776;9.128;2023-04-19T13:30:31;10.80;99.90
10312;DHT22;5201;48.776;9.128;2023-04-19T13:32:56;10.90;99.90
10312;DHT22;5201;48.776;9.128;2023-04-19T13:35:22;10.80;99.90
10312;DHT22;5201;48.776;9.128;2023-04-19T13:37:48;10.90;99.90
10312;DHT22;5201;48.776;9.128;2023-04-19T13:40:15;11.20;99.90
10312;DHT22;5201;48.776;9.128;2023-04-19T13:42:41;10.70;99.90
10312;DHT22;5201;48.776;9.128;2023-04-19T13:45:07;10.70;99.90
10312;DHT22;5201;48.776;9.128;2023-04-19T13:47:33;10.70;99.90
10312;DHT22;5201;48.776;9.128;2023-04-19T13:49:59;10.60;99.90
10312;DHT22;5201;48.776;9.128;2023-04-19T13:52:25;10.70;99.90
10312;DHT22;5201;48.776;9.128;2023-04-19T13:54:51;10.70;99.90
10312;DHT22;5201;48.776;9.128;2023-04-19T13:57:16;11.00;99.90
10312;DHT22;5201;48.776;9.128;2023-04-19T13:59:42;11.10;99.90
10312;DHT22;5201;48.776;9.128;2023-04-19T14:02:07;11.10;99.90
10312;DHT22;5201;48.776;9.128;2023-04-19T14:04:33;11.20;99.90
10312;DHT22;5201;48.776;9.128;2023-04-19T14:06:59;11.30;99.90
10312;DHT22;5201;48.776;9.128;2023-04-19T14:09:24;11.20;99.90
10312;DHT22;5201;48.776;9.128;2023-04-19T14:11:50;11.40;99.90
10312;DHT22;5201;48.776;9.128;2023-04-19T14:14:16;11.50;99.90
10312;DHT22;5201;48.776;9.128;2023-04-19T14:16:42;12.20;99.90
10312;DHT22;5201;48.776;9.128;2023-04-19T14:19:08;12.00;99.90
10312;DHT22;5201;48.776;9.128;2023-04-19T14:21:33;11.80;99.90
10312;DHT22;5201;48.776;9.128;2023-04-19T14:23:59;11.80;99.90
10312;DHT22;5201;48.776;9.128;2023-04-19T14:26:25;12.30;99.90
10312;DHT22;5201;48.776;9.128;2023-04-19T14:28:50;11.30;99.90
10312;DHT22;5201;48.776;9.128;2023-04-19T14:31:16;11.60;99.90
10312;DHT22;5201;48.776;9.128;2023-04-19T14:33:41;11.60;99.90
10312;DHT22;5201;48.776;9.128;2023-04-19T14:36:07;11.80;99.90
10312;DHT22;5201;48.776;9.128;2023-04-19T14:38:33;12.00;99.90
10312;DHT22;5201;48.776;9.128;2023-04-19T14:40:59;12.00;99.90
10312;DHT22;5201;48.776;9.128;2023-04-19T14:43:26;12.10;99.90
10312;DHT22;5201;48.776;9.128;2023-04-19T14:45:52;12.00;99.90
10312;DHT22;5201;48.776;9.128;2023-04-19T14:48:17;12.40;99.90
10312;DHT22;5201;48.776;9.128;2023-04-19T14:50:43;12.60;99.90
10312;DHT22;5201;48.776;9.128;2023-04-19T14:53:09;12.50;99.90
10312;DHT22;5201;48.776;9.128;2023-04-19T14:55:36;11.90;99.90
10312;DHT22;5201;48.776;9.128;2023-04-19T14:58:02;12.10;99.90
10312;DHT22;5201;48.776;9.128;2023-04-19T15:00:28;12.30;99.90
10312;DHT22;5201;48.776;9.128;2023-04-19T15:02:53;11.70;99.90
10312;DHT22;5201;48.776;9.128;2023-04-19T15:05:21;11.90;99.90
10312;DHT22;5201;48.776;9.128;2023-04-19T15:07:48;11.90;99.90
10312;DHT22;5201;48.776;9.128;2023-04-19T15:10:13;12.00;99.90
10312;DHT22;5201;48.776;9.128;2023-04-19T15:12:39;12.00;99.90
10312;DHT22;5201;48.776;9.128;2023-04-19T15:15:05;11.90;99.90
10312;DHT22;5201;48.776;9.128;2023-04-19T15:17:31;11.60;99.90
10312;DHT22;5201;48.776;9.128;2023-04-19T15:19:57;11.40;99.90
10312;DHT22;5201;48.776;9.128;2023-04-19T15:22:23;11.40;99.90
10312;DHT22;5201;48.776;9.128;2023-04-19T15:24:49;11.50;99.90
10312;DHT22;5201;48.776;9.128;2023-04-19T15:27:14;11.80;99.90
10312;DHT22;5201;48.776;9.128;2023-04-19T15:29:40;11.70;99.90
10312;DHT22;5201;48.776;9.128;2023-04-19T15:32:06;11.70;99.90
10312;DHT22;5201;48.776;9.128;2023-04-19T15:34:32;12.00;99.90
10312;DHT22;5201;48.776;9.128;2023-04-19T15:36:57;12.20;99.90
10312;DHT22;5201;48.776;9.128;2023-04-19T15:39:24;12.00;99.90
10312;DHT22;5201;48.776;9.128;2023-04-19T15:41:50;11.90;99.90
10312;DHT22;5201;48.776;9.128;2023-04-19T15:44:15;12.10;99.90
10312;DHT22;5201;48.776;9.128;2023-04-19T15:46:41;12.10;99.90
10312;DHT22;5201;48.776;9.128;2023-04-19T15:49:06;12.10;99.90
10312;DHT22;5201;48.776;9.128;2023-04-19T15:51:32;12.10;99.90
10312;DHT22;5201;48.776;9.128;2023-04-19T15:53:57;12.00;99.90
10312;DHT22;5201;48.776;9.128;2023-04-19T15:56:23;12.20;99.90
10312;DHT22;5201;48.776;9.128;2023-04-19T15:58:49;11.90;99.90